createdAt,value
2023-06-18T00:00:12.501Z,20.42
2023-06-18T00:02:40.996Z,20.05
2023-06-18T00:05:09.620Z,20.15
2023-06-18T00:07:37.738Z,20.15
2023-06-18T00:10:06.429Z,21.55
2023-06-18T00:12:34.410Z,20.73
2023-06-18T00:15:05.008Z,24.45
2023-06-18T00:17:33.902Z,21.27
2023-06-18T00:20:02.098Z,20.15
2023-06-18T00:22:30.181Z,21.55
2023-06-18T00:24:58.144Z,20.80
2023-06-18T00:27:26.284Z,22.05
2023-06-18T00:29:54.538Z,19.27
2023-06-18T00:32:23.911Z,18.50
2023-06-18T00:34:54.475Z,19.77
2023-06-18T00:37:23.163Z,20.05
2023-06-18T00:39:51.214Z,19.38
2023-06-18T00:42:19.586Z,20.35
2023-06-18T00:44:48.194Z,19.73
2023-06-18T00:47:16.508Z,19.83
2023-06-18T00:49:46.583Z,19.95
2023-06-18T00:52:15.608Z,21.92
2023-06-18T00:54:46.003Z,21.30
2023-06-18T00:57:15.552Z,21.20
2023-06-18T00:59:45.481Z,20.08
2023-06-18T01:02:15.195Z,21.08
2023-06-18T01:04:46.435Z,20.40
2023-06-18T01:07:17.558Z,20.42
2023-06-18T01:09:54.684Z,20.20
2023-06-18T01:12:23.778Z,22.30
2023-06-18T01:14:52.577Z,21.15
2023-06-18T01:17:23.688Z,20.52
2023-06-18T01:19:58.179Z,20.83
2023-06-18T01:22:34.039Z,20.58
2023-06-18T01:25:07.034Z,21.08
2023-06-18T01:27:41.594Z,19.67
2023-06-18T01:30:10.744Z,19.75
2023-06-18T01:32:39.372Z,20.92
2023-06-18T01:35:16.687Z,20.48
2023-06-18T01:37:58.184Z,20.63
2023-06-18T01:40:36.028Z,20.75
2023-06-18T01:43:13.177Z,21.23
2023-06-18T01:45:47.815Z,19.75
2023-06-18T01:48:17.881Z,20.52
2023-06-18T01:50:49.441Z,20.88
2023-06-18T01:53:19.689Z,20.65
2023-06-18T01:55:50.391Z,20.88
2023-06-18T01:58:18.959Z,20.55
2023-06-18T02:00:47.100Z,19.65
2023-06-18T02:03:15.121Z,19.92
2023-06-18T02:05:43.190Z,19.77
2023-06-18T02:08:12.587Z,20.67
2023-06-18T02:10:40.588Z,20.67
2023-06-18T02:13:09.021Z,22.05
2023-06-18T02:15:37.323Z,20.58
2023-06-18T02:18:05.703Z,20.35
2023-06-18T02:20:33.870Z,21.45
2023-06-18T02:23:01.901Z,20.40
2023-06-18T02:25:31.327Z,20.67
2023-06-18T02:27:59.569Z,20.65
2023-06-18T02:30:30.331Z,19.65
2023-06-18T02:32:59.897Z,20.35
2023-06-18T02:35:28.268Z,19.95
2023-06-18T02:37:56.624Z,18.52
2023-06-18T02:40:25.011Z,17.98
2023-06-18T02:42:54.542Z,19.15
2023-06-18T02:45:24.337Z,18.75
2023-06-18T02:47:52.431Z,19.00
2023-06-18T02:50:21.993Z,20.20
2023-06-18T02:52:50.368Z,18.52
2023-06-18T02:55:18.550Z,19.60
2023-06-18T02:57:47.834Z,18.30
2023-06-18T03:00:17.759Z,20.40
2023-06-18T03:02:46.127Z,20.67
2023-06-18T03:05:14.344Z,19.23
2023-06-18T03:07:42.459Z,20.23
2023-06-18T03:10:11.107Z,19.98
2023-06-18T03:12:39.185Z,20.63
2023-06-18T03:15:08.363Z,21.05
2023-06-18T03:17:37.825Z,20.73
2023-06-18T03:20:08.443Z,19.15
2023-06-18T03:22:36.456Z,20.92
2023-06-18T03:25:04.504Z,20.15
2023-06-18T03:27:32.459Z,20.70
2023-06-18T03:30:00.493Z,19.75
2023-06-18T03:32:30.640Z,19.08
2023-06-18T03:35:00.026Z,17.35
2023-06-18T03:37:29.193Z,17.92
2023-06-18T03:39:57.176Z,18.13
2023-06-18T03:42:26.288Z,17.35
2023-06-18T03:44:54.360Z,18.05
2023-06-18T03:47:22.475Z,17.63
2023-06-18T03:49:50.669Z,16.85
2023-06-18T03:52:20.013Z,17.33
2023-06-18T03:54:48.709Z,18.33
2023-06-18T03:57:16.883Z,18.05
2023-06-18T03:59:44.885Z,19.02
2023-06-18T04:02:15.366Z,20.15
2023-06-18T04:04:43.503Z,18.48
2023-06-18T04:07:11.690Z,18.75
2023-06-18T04:09:41.122Z,18.75
2023-06-18T04:12:10.478Z,18.85
2023-06-18T04:14:38.637Z,19.40
2023-06-18T04:17:06.901Z,19.77
2023-06-18T04:19:35.082Z,20.23
2023-06-18T04:22:03.222Z,19.60
2023-06-18T04:24:31.240Z,19.17
2023-06-18T04:27:00.659Z,18.02
2023-06-18T04:29:28.809Z,18.48
2023-06-18T04:31:56.905Z,18.05
2023-06-18T04:34:24.906Z,18.00
2023-06-18T04:36:52.896Z,18.92
2023-06-18T04:39:21.539Z,18.65
2023-06-18T04:41:49.556Z,18.73
2023-06-18T04:44:19.474Z,18.13
2023-06-18T04:46:47.499Z,18.00
2023-06-18T04:49:16.268Z,18.92
2023-06-18T04:51:44.843Z,19.02
2023-06-18T04:54:13.314Z,18.40
2023-06-18T04:56:41.476Z,19.08
2023-06-18T04:59:09.520Z,18.83
2023-06-18T05:01:38.920Z,19.90
2023-06-18T05:04:07.097Z,19.10
2023-06-18T05:06:35.154Z,19.05
2023-06-18T05:09:03.700Z,19.15
2023-06-18T05:11:31.684Z,20.33
2023-06-18T05:13:59.929Z,20.17
2023-06-18T05:16:27.947Z,20.33
2023-06-18T05:18:57.401Z,20.05
2023-06-18T05:21:26.872Z,20.58
2023-06-18T05:23:55.078Z,21.00
2023-06-18T05:26:23.198Z,23.60
2023-06-18T05:28:51.655Z,20.17
2023-06-18T05:31:19.800Z,18.88
2023-06-18T05:33:47.937Z,20.17
2023-06-18T05:36:17.515Z,18.90
2023-06-18T05:38:45.617Z,19.67
2023-06-18T05:41:13.604Z,21.10
2023-06-18T05:43:41.587Z,21.38
2023-06-18T05:46:09.628Z,20.65
2023-06-18T05:48:37.671Z,21.15
2023-06-18T05:51:05.969Z,21.20
2023-06-18T05:53:35.431Z,22.63
2023-06-18T05:56:03.494Z,21.30
2023-06-18T05:58:31.600Z,23.40
2023-06-18T06:00:59.600Z,21.55
2023-06-18T06:03:27.661Z,30.80
2023-06-18T06:05:55.979Z,23.45
2023-06-18T06:08:24.190Z,24.70
2023-06-18T06:10:53.908Z,23.40
2023-06-18T06:13:22.230Z,21.95
2023-06-18T06:15:50.234Z,22.30
2023-06-18T06:18:18.256Z,21.67
2023-06-18T06:20:46.337Z,22.42
2023-06-18T06:23:14.329Z,22.00
2023-06-18T06:25:42.513Z,21.88
2023-06-18T06:28:12.591Z,21.40
2023-06-18T06:30:40.704Z,21.48
2023-06-18T06:33:08.757Z,21.60
2023-06-18T06:35:37.720Z,20.88
2023-06-18T06:38:05.769Z,21.45
2023-06-18T06:40:33.975Z,22.23
2023-06-18T06:43:02.070Z,22.33
2023-06-18T06:45:31.514Z,21.63
2023-06-18T06:47:59.907Z,22.13
2023-06-18T06:50:28.035Z,21.92
2023-06-18T06:52:56.149Z,22.70
2023-06-18T06:55:24.261Z,22.30
2023-06-18T06:57:52.237Z,22.45
2023-06-18T07:00:20.593Z,22.98
2023-06-18T07:02:50.417Z,23.17
2023-06-18T07:05:18.911Z,23.80
2023-06-18T07:07:47.321Z,22.33
2023-06-18T07:10:15.395Z,21.23
2023-06-18T07:12:43.353Z,22.48
2023-06-18T07:15:12.097Z,22.67
2023-06-18T07:17:40.194Z,23.20
2023-06-18T07:20:10.452Z,21.80
2023-06-18T07:22:38.425Z,23.73
2023-06-18T07:25:07.371Z,21.95
2023-06-18T07:27:36.470Z,22.05
2023-06-18T07:30:04.941Z,22.67
2023-06-18T07:32:33.169Z,23.13
2023-06-18T07:35:01.271Z,22.45
2023-06-18T07:37:30.650Z,21.70
2023-06-18T07:39:58.878Z,22.38
2023-06-18T07:42:26.905Z,22.20
2023-06-18T07:44:54.894Z,23.75
2023-06-18T07:47:23.150Z,22.25
2023-06-18T07:49:51.245Z,22.25
2023-06-18T07:52:19.602Z,22.25
2023-06-18T07:54:48.970Z,22.90
2023-06-18T07:57:17.116Z,21.77
2023-06-18T07:59:45.220Z,24.38
2023-06-18T08:02:13.248Z,53.35
2023-06-18T08:04:41.712Z,83.25
2023-06-18T08:07:09.754Z,99.78
2023-06-18T08:09:37.756Z,83.72
2023-06-18T08:12:08.684Z,105.40
2023-06-18T08:14:36.686Z,70.97
2023-06-18T08:17:04.973Z,75.13
2023-06-18T08:19:33.663Z,72.35
2023-06-18T08:22:02.470Z,65.18
2023-06-18T08:24:30.484Z,61.75
2023-06-18T08:26:58.501Z,62.40
2023-06-18T08:29:27.943Z,63.13
2023-06-18T08:31:55.936Z,66.57
2023-06-18T08:34:25.108Z,68.18
2023-06-18T08:36:53.096Z,69.22
2023-06-18T08:39:21.111Z,68.75
2023-06-18T08:41:49.203Z,71.57
2023-06-18T08:44:17.612Z,70.50
2023-06-18T08:46:51.427Z,69.50
2023-06-18T08:49:21.216Z,70.38
2023-06-18T08:51:52.144Z,69.22
2023-06-18T08:54:21.069Z,70.75
2023-06-18T08:56:56.755Z,73.88
2023-06-18T08:59:26.448Z,73.53
2023-06-18T09:01:56.362Z,71.47
2023-06-18T09:04:25.713Z,75.25
2023-06-18T09:06:55.067Z,73.97
2023-06-18T09:09:23.400Z,74.82
2023-06-18T09:11:51.404Z,73.88
2023-06-18T09:14:19.451Z,75.90
2023-06-18T09:16:47.458Z,73.40
2023-06-18T09:19:17.435Z,73.93
2023-06-18T09:21:46.314Z,69.75
2023-06-18T09:24:18.365Z,73.97
2023-06-18T09:26:46.917Z,73.18
2023-06-18T09:29:15.431Z,72.68
2023-06-18T09:31:46.109Z,74.38
2023-06-18T09:34:17.911Z,71.95
2023-06-18T09:36:47.169Z,75.35
2023-06-18T09:39:19.829Z,74.53
2023-06-18T09:41:49.020Z,76.38
2023-06-18T09:44:17.930Z,76.30
2023-06-18T09:46:47.302Z,75.32
2023-06-18T09:49:19.431Z,78.95
2023-06-18T09:51:51.644Z,76.72
2023-06-18T09:54:20.317Z,77.77
2023-06-18T09:56:58.582Z,74.60
2023-06-18T09:59:27.097Z,78.38
2023-06-18T10:01:56.088Z,78.25
2023-06-18T10:04:26.650Z,78.60
2023-06-18T10:06:59.020Z,76.75
2023-06-18T10:09:33.463Z,80.57
2023-06-18T10:12:02.637Z,79.05
2023-06-18T10:14:31.931Z,77.25
2023-06-18T10:17:10.302Z,74.45
2023-06-18T10:19:48.714Z,76.72
2023-06-18T10:22:19.280Z,76.90
2023-06-18T10:24:52.106Z,74.63
2023-06-18T10:27:20.763Z,78.85
2023-06-18T10:29:48.912Z,78.07
2023-06-18T10:32:17.643Z,76.20
2023-06-18T10:34:47.655Z,82.72
2023-06-18T10:37:16.974Z,80.78
2023-06-18T10:39:45.790Z,81.05
2023-06-18T10:42:16.548Z,81.32
2023-06-18T10:44:52.570Z,78.90
2023-06-18T10:47:22.190Z,82.57
2023-06-18T10:50:18.012Z,84.00
2023-06-18T10:52:49.658Z,82.03
2023-06-18T10:55:31.466Z,79.15
2023-06-18T10:58:02.749Z,80.95
2023-06-18T11:00:38.100Z,78.57
2023-06-18T11:03:09.100Z,80.28
2023-06-18T11:05:46.226Z,75.97
2023-06-18T11:08:15.815Z,74.38
2023-06-18T11:10:46.571Z,77.00
2023-06-18T11:13:15.350Z,75.35
2023-06-18T11:16:00.516Z,76.03
2023-06-18T11:18:29.718Z,75.57
2023-06-18T11:21:00.869Z,78.85
2023-06-18T11:23:32.347Z,79.30
2023-06-18T11:26:00.918Z,80.15
2023-06-18T11:28:28.932Z,77.45
2023-06-18T11:30:59.668Z,76.80
2023-06-18T11:33:29.266Z,81.30
2023-06-18T11:36:10.312Z,80.18
2023-06-18T11:38:38.884Z,80.15
2023-06-18T11:41:06.910Z,81.70
2023-06-18T11:43:48.360Z,80.05
2023-06-18T11:46:30.867Z,79.20
2023-06-18T11:49:00.564Z,79.35
2023-06-18T11:51:32.225Z,78.63
2023-06-18T11:54:00.868Z,80.13
2023-06-18T11:56:31.309Z,77.85
2023-06-18T11:59:00.982Z,78.43
2023-06-18T12:01:30.078Z,79.13
2023-06-18T12:04:06.319Z,75.18
2023-06-18T12:06:36.296Z,75.07
2023-06-18T12:09:08.896Z,76.53
2023-06-18T12:11:49.761Z,77.32
2023-06-18T12:14:32.929Z,76.07
2023-06-18T12:17:07.578Z,74.95
2023-06-18T12:19:36.834Z,74.75
2023-06-18T12:22:06.601Z,72.85
2023-06-18T12:24:34.722Z,77.07
2023-06-18T12:27:03.044Z,71.75
2023-06-18T12:29:31.270Z,76.78
2023-06-18T12:32:06.458Z,73.93
2023-06-18T12:34:36.691Z,73.60
2023-06-18T12:37:06.587Z,74.97
2023-06-18T12:39:37.669Z,73.00
2023-06-18T12:42:10.836Z,75.00
2023-06-18T12:44:40.425Z,72.95
2023-06-18T12:47:09.140Z,71.10
2023-06-18T12:49:40.119Z,73.85
2023-06-18T12:52:18.453Z,70.78
2023-06-18T12:54:48.056Z,69.40
2023-06-18T12:57:17.066Z,69.95
2023-06-18T12:59:54.129Z,69.80
2023-06-18T13:02:22.720Z,72.10
2023-06-18T13:04:51.434Z,72.90
2023-06-18T13:07:20.863Z,75.65
2023-06-18T13:09:48.959Z,75.00
2023-06-18T13:12:17.404Z,74.45
2023-06-18T13:14:45.385Z,72.35
2023-06-18T13:17:13.558Z,77.97
2023-06-18T13:19:58.285Z,75.57
2023-06-18T13:22:29.737Z,74.55
2023-06-18T13:24:58.747Z,73.38
2023-06-18T13:27:27.139Z,72.45
2023-06-18T13:29:55.280Z,68.68
2023-06-18T13:32:23.529Z,69.32
2023-06-18T13:34:52.010Z,71.70
2023-06-18T13:37:20.542Z,72.47
2023-06-18T13:39:50.665Z,73.72
2023-06-18T13:42:19.115Z,72.82
2023-06-18T13:44:47.131Z,72.00
2023-06-18T13:47:15.146Z,74.60
2023-06-18T13:49:43.664Z,72.25
2023-06-18T13:52:12.684Z,73.63
2023-06-18T13:54:40.690Z,73.28
2023-06-18T13:57:10.164Z,74.78
2023-06-18T13:59:38.318Z,72.85
2023-06-18T14:02:06.724Z,69.68
2023-06-18T14:04:36.850Z,71.43
2023-06-18T14:07:05.643Z,70.60
2023-06-18T14:09:33.811Z,71.55
2023-06-18T14:12:02.241Z,72.97
2023-06-18T14:14:32.857Z,71.30
2023-06-18T14:17:01.089Z,72.63
2023-06-18T14:19:29.325Z,71.53
2023-06-18T14:21:57.335Z,70.68
2023-06-18T14:24:25.415Z,69.10
2023-06-18T14:26:54.099Z,71.80
2023-06-18T14:29:22.095Z,75.30
2023-06-18T14:31:51.425Z,73.75
2023-06-18T14:34:19.721Z,73.75
2023-06-18T14:36:47.720Z,74.25
2023-06-18T14:39:15.714Z,75.40
2023-06-18T14:41:43.697Z,74.70
2023-06-18T14:44:11.667Z,75.35
2023-06-18T14:46:39.688Z,77.05
2023-06-18T14:49:09.261Z,74.10
2023-06-18T14:51:37.274Z,74.13
2023-06-18T14:54:12.868Z,80.80
2023-06-18T14:56:42.405Z,72.07
2023-06-18T14:59:10.481Z,68.88
2023-06-18T15:01:38.974Z,23.52
2023-06-18T15:04:08.945Z,23.25
2023-06-18T15:06:37.472Z,22.85
2023-06-18T15:09:06.800Z,23.25
2023-06-18T15:11:35.268Z,26.58
2023-06-18T15:14:03.295Z,23.02
2023-06-18T15:16:32.435Z,22.40
2023-06-18T15:19:00.478Z,23.05
2023-06-18T15:21:29.969Z,22.88
2023-06-18T15:23:58.067Z,22.08
2023-06-18T15:26:27.485Z,23.63
2023-06-18T15:28:55.602Z,22.08
2023-06-18T15:31:23.636Z,22.88
2023-06-18T15:33:51.979Z,23.05
2023-06-18T15:36:19.990Z,21.83
2023-06-18T15:38:50.051Z,22.73
2023-06-18T15:41:18.151Z,22.10
2023-06-18T15:43:46.267Z,22.33
2023-06-18T15:46:17.149Z,22.67
2023-06-18T15:48:45.839Z,22.63
2023-06-18T15:51:14.194Z,22.35
2023-06-18T15:53:43.888Z,21.60
2023-06-18T15:56:13.267Z,22.40
2023-06-18T15:58:41.249Z,23.52
2023-06-18T16:01:09.319Z,23.52
2023-06-18T16:03:37.313Z,23.52
2023-06-18T16:06:05.586Z,22.92
2023-06-18T16:08:33.624Z,22.92
2023-06-18T16:11:01.811Z,23.52
2023-06-18T16:13:31.313Z,23.45
2023-06-18T16:15:59.380Z,23.08
2023-06-18T16:18:27.388Z,22.70
2023-06-18T16:20:55.591Z,22.25
2023-06-18T16:23:23.600Z,22.90
2023-06-18T16:25:51.844Z,22.23
2023-06-18T16:28:19.801Z,22.65
2023-06-18T16:30:49.238Z,22.08
2023-06-18T16:33:17.259Z,21.88
2023-06-18T16:35:45.263Z,22.60
2023-06-18T16:38:13.227Z,21.52
2023-06-18T16:40:41.313Z,21.92
2023-06-18T16:43:09.324Z,21.83
2023-06-18T16:45:37.979Z,23.17
2023-06-18T16:48:07.814Z,21.10
2023-06-18T16:50:35.961Z,22.98
2023-06-18T16:53:03.952Z,23.05
2023-06-18T16:55:31.977Z,22.20
2023-06-18T16:58:00.041Z,22.08
2023-06-18T17:00:28.048Z,23.35
2023-06-18T17:02:56.094Z,22.40
2023-06-18T17:05:25.708Z,23.23
2023-06-18T17:07:53.812Z,23.83
2023-06-18T17:10:21.989Z,22.25
2023-06-18T17:12:50.046Z,21.75
2023-06-18T17:15:18.140Z,24.35
2023-06-18T17:17:46.467Z,22.00
2023-06-18T17:20:16.328Z,20.35
2023-06-18T17:22:45.949Z,21.35
2023-06-18T17:25:13.992Z,22.02
2023-06-18T17:27:41.986Z,21.98
2023-06-18T17:30:10.881Z,21.30
2023-06-18T17:32:38.941Z,22.13
2023-06-18T17:35:07.510Z,22.17
2023-06-18T17:37:35.603Z,23.33
2023-06-18T17:40:05.296Z,21.25
2023-06-18T17:42:33.285Z,20.58
2023-06-18T17:45:01.258Z,22.10
2023-06-18T17:47:29.408Z,20.40
2023-06-18T17:49:58.791Z,23.20
2023-06-18T17:52:26.866Z,24.08
2023-06-18T17:54:55.028Z,21.75
2023-06-18T17:57:24.510Z,22.50
2023-06-18T17:59:52.490Z,22.42
2023-06-18T18:02:20.545Z,23.58
2023-06-18T18:04:48.592Z,21.42
2023-06-18T18:07:16.583Z,20.67
2023-06-18T18:09:44.718Z,21.63
2023-06-18T18:12:12.780Z,21.55
2023-06-18T18:14:42.208Z,21.77
2023-06-18T18:17:10.226Z,22.23
2023-06-18T18:19:38.193Z,22.75
2023-06-18T18:22:06.716Z,21.92
2023-06-18T18:24:34.732Z,21.45
2023-06-18T18:27:02.747Z,22.30
2023-06-18T18:29:30.750Z,22.02
2023-06-18T18:32:00.781Z,21.90
2023-06-18T18:34:28.815Z,21.88
2023-06-18T18:36:58.312Z,22.15
2023-06-18T18:39:26.311Z,21.73
2023-06-18T18:41:54.405Z,21.88
2023-06-18T18:44:22.442Z,22.15
2023-06-18T18:46:50.410Z,21.55
2023-06-18T18:49:19.744Z,22.77
2023-06-18T18:51:47.735Z,22.83
2023-06-18T18:54:17.439Z,22.40
2023-06-18T18:56:45.443Z,21.25
2023-06-18T18:59:13.484Z,21.90
2023-06-18T19:01:43.064Z,20.98
2023-06-18T19:04:11.376Z,21.02
2023-06-18T19:06:40.722Z,22.98
2023-06-18T19:09:08.973Z,21.60
2023-06-18T19:11:37.082Z,23.00
2023-06-18T19:14:05.129Z,23.58
2023-06-18T19:16:33.135Z,22.48
2023-06-18T19:19:01.156Z,22.77
2023-06-18T19:21:29.203Z,21.33
2023-06-18T19:23:58.596Z,22.95
2023-06-18T19:26:26.882Z,23.58
2023-06-18T19:28:56.980Z,22.42
2023-06-18T19:31:24.979Z,23.20
2023-06-18T19:33:52.975Z,22.23
2023-06-18T19:36:21.006Z,21.75
2023-06-18T19:38:49.545Z,24.30
2023-06-18T19:41:18.916Z,23.05
2023-06-18T19:43:47.251Z,23.92
2023-06-18T19:46:15.254Z,23.48
2023-06-18T19:48:43.260Z,23.42
2023-06-18T19:51:11.282Z,23.60
2023-06-18T19:53:39.506Z,22.70
2023-06-18T19:56:07.788Z,23.75
2023-06-18T19:58:37.110Z,23.27
2023-06-18T20:01:05.326Z,22.30
2023-06-18T20:03:33.453Z,23.52
2023-06-18T20:06:01.485Z,23.35
2023-06-18T20:08:29.481Z,23.00
2023-06-18T20:10:58.715Z,23.10
2023-06-18T20:13:26.700Z,22.00
2023-06-18T20:15:57.285Z,24.15
2023-06-18T20:18:25.623Z,23.27
2023-06-18T20:20:54.798Z,22.63
2023-06-18T20:23:23.038Z,23.75
2023-06-18T20:25:51.052Z,24.67
2023-06-18T20:28:19.045Z,24.15
2023-06-18T20:30:47.094Z,24.02
2023-06-18T20:33:16.519Z,23.02
2023-06-18T20:35:44.645Z,23.10
2023-06-18T20:38:12.665Z,24.17
2023-06-18T20:40:40.686Z,22.17
2023-06-18T20:43:08.676Z,24.25
2023-06-18T20:45:36.838Z,23.75
2023-06-18T20:48:05.035Z,22.65
2023-06-18T20:50:35.706Z,23.52
2023-06-18T20:53:04.232Z,23.35
2023-06-18T20:55:32.211Z,23.38
2023-06-18T20:58:00.291Z,23.65
2023-06-18T21:00:28.457Z,22.75
2023-06-18T21:02:56.870Z,22.52
2023-06-18T21:05:24.974Z,22.60
2023-06-18T21:07:54.298Z,22.95
2023-06-18T21:10:22.658Z,23.38
2023-06-18T21:12:53.161Z,22.98
2023-06-18T21:15:21.182Z,22.25
2023-06-18T21:17:49.295Z,22.10
2023-06-18T21:20:17.419Z,23.65
2023-06-18T21:22:45.416Z,21.77
2023-06-18T21:25:15.659Z,22.88
2023-06-18T21:27:43.828Z,24.55
2023-06-18T21:30:12.397Z,25.70
2023-06-18T21:32:40.532Z,24.05
2023-06-18T21:35:09.092Z,23.83
2023-06-18T21:37:42.579Z,23.75
2023-06-18T21:40:11.808Z,22.77
2023-06-18T21:42:41.171Z,23.42
2023-06-18T21:45:09.826Z,22.73
2023-06-18T21:47:37.923Z,23.27
2023-06-18T21:50:06.647Z,22.70
2023-06-18T21:52:34.783Z,22.35
2023-06-18T21:55:02.846Z,22.50
2023-06-18T21:57:30.854Z,25.15
2023-06-18T22:00:00.345Z,22.27
2023-06-18T22:02:28.622Z,24.75
2023-06-18T22:04:56.649Z,22.17
2023-06-18T22:07:24.725Z,22.10
2023-06-18T22:09:52.822Z,21.65
2023-06-18T22:12:21.563Z,22.95
2023-06-18T22:14:50.517Z,22.70
2023-06-18T22:17:20.952Z,23.52
2023-06-18T22:19:49.045Z,21.48
2023-06-18T22:22:17.176Z,20.85
2023-06-18T22:24:46.554Z,23.40
2023-06-18T22:27:15.581Z,22.23
2023-06-18T22:29:43.667Z,23.17
2023-06-18T22:32:11.876Z,23.98
2023-06-18T22:34:43.241Z,21.60
2023-06-18T22:37:11.837Z,24.45
2023-06-18T22:39:40.024Z,21.45
2023-06-18T22:42:08.634Z,23.75
2023-06-18T22:44:36.692Z,22.63
2023-06-18T22:47:04.789Z,22.10
2023-06-18T22:49:32.838Z,22.42
2023-06-18T22:52:02.197Z,23.92
2023-06-18T22:54:30.198Z,21.25
2023-06-18T22:56:58.226Z,23.23
2023-06-18T22:59:26.324Z,21.30
2023-06-18T23:01:55.085Z,22.35
2023-06-18T23:04:23.122Z,22.55
2023-06-18T23:06:51.143Z,23.05
2023-06-18T23:09:20.573Z,21.65
2023-06-18T23:11:48.585Z,21.42
2023-06-18T23:14:18.931Z,21.55
2023-06-18T23:16:47.150Z,29.40
2023-06-18T23:19:15.305Z,21.67
2023-06-18T23:21:47.997Z,22.20
2023-06-18T23:24:17.162Z,22.85
2023-06-18T23:26:46.640Z,22.27
2023-06-18T23:29:14.660Z,22.33
2023-06-18T23:31:42.949Z,21.92
2023-06-18T23:34:10.962Z,22.13
2023-06-18T23:36:40.131Z,20.95
2023-06-18T23:39:08.693Z,20.90
2023-06-18T23:41:36.702Z,21.23
2023-06-18T23:44:06.332Z,22.17
2023-06-18T23:46:34.407Z,21.80
2023-06-18T23:49:02.493Z,20.90
2023-06-18T23:51:30.482Z,22.13
2023-06-18T23:53:58.486Z,19.73
2023-06-18T23:56:26.507Z,21.40
2023-06-18T23:58:54.694Z,21.67
